sensor_id;sensor_type;location;lat;lon;timestamp;temperature;humidity
18085;DHT22;9169;44.492;11.372;2023-10-13T00:01:10;23.80;50.70
18085;DHT22;9169;44.492;11.372;2023-10-13T00:03:42;23.80;50.70
18085;DHT22;9169;44.492;11.372;2023-10-13T00:06:10;23.80;50.70
18085;DHT22;9169;44.492;11.372;2023-10-13T00:08:43;23.80;50.70
18085;DHT22;9169;44.492;11.372;2023-10-13T00:11:13;23.80;50.80
18085;DHT22;9169;44.492;11.372;2023-10-13T00:13:42;23.80;50.70
18085;DHT22;9169;44.492;11.372;2023-10-13T00:16:18;23.80;50.90
18085;DHT22;9169;44.492;11.372;2023-10-13T00:18:49;23.80;50.90
18085;DHT22;9169;44.492;11.372;2023-10-13T00:21:21;23.80;50.90
18085;DHT22;9169;44.492;11.372;2023-10-13T00:24:01;23.80;50.90
18085;DHT22;9169;44.492;11.372;2023-10-13T00:26:34;23.80;51.10
18085;DHT22;9169;44.492;11.372;2023-10-13T00:29:04;23.70;51.00
18085;DHT22;9169;44.492;11.372;2023-10-13T00:31:44;23.70;51.60
18085;DHT22;9169;44.492;11.372;2023-10-13T00:34:16;23.70;51.10
18085;DHT22;9169;44.492;11.372;2023-10-13T00:36:46;23.70;51.20
18085;DHT22;9169;44.492;11.372;2023-10-13T00:39:38;23.60;51.10
18085;DHT22;9169;44.492;11.372;2023-10-13T00:42:12;23.60;51.20
18085;DHT22;9169;44.492;11.372;2023-10-13T00:44:47;23.60;51.10
18085;DHT22;9169;44.492;11.372;2023-10-13T00:47:18;23.60;51.20
18085;DHT22;9169;44.492;11.372;2023-10-13T00:49:49;23.60;51.30
18085;DHT22;9169;44.492;11.372;2023-10-13T00:52:19;23.50;51.30
18085;DHT22;9169;44.492;11.372;2023-10-13T00:54:48;23.50;51.30
18085;DHT22;9169;44.492;11.372;2023-10-13T00:57:18;23.50;51.40
18085;DHT22;9169;44.492;11.372;2023-10-13T00:59:55;23.50;51.30
18085;DHT22;9169;44.492;11.372;2023-10-13T01:02:28;23.50;51.30
18085;DHT22;9169;44.492;11.372;2023-10-13T01:05:06;23.50;51.20
18085;DHT22;9169;44.492;11.372;2023-10-13T01:07:37;23.50;51.30
18085;DHT22;9169;44.492;11.372;2023-10-13T01:10:09;23.50;51.20
18085;DHT22;9169;44.492;11.372;2023-10-13T01:12:40;23.50;51.40
18085;DHT22;9169;44.492;11.372;2023-10-13T01:15:11;23.50;51.30
18085;DHT22;9169;44.492;11.372;2023-10-13T01:17:45;23.50;51.40
18085;DHT22;9169;44.492;11.372;2023-10-13T01:20:13;23.40;51.30
18085;DHT22;9169;44.492;11.372;2023-10-13T01:22:48;23.50;51.30
18085;DHT22;9169;44.492;11.372;2023-10-13T01:25:25;23.50;51.30
18085;DHT22;9169;44.492;11.372;2023-10-13T01:27:56;23.50;51.30
18085;DHT22;9169;44.492;11.372;2023-10-13T01:30:24;23.50;51.20
18085;DHT22;9169;44.492;11.372;2023-10-13T01:32:54;23.40;51.20
18085;DHT22;9169;44.492;11.372;2023-10-13T01:35:27;23.40;51.20
18085;DHT22;9169;44.492;11.372;2023-10-13T01:38:04;23.40;51.10
18085;DHT22;9169;44.492;11.372;2023-10-13T01:40:33;23.40;51.10
18085;DHT22;9169;44.492;11.372;2023-10-13T01:43:02;23.40;51.20
18085;DHT22;9169;44.492;11.372;2023-10-13T01:45:32;23.40;51.40
18085;DHT22;9169;44.492;11.372;2023-10-13T01:48:01;23.40;51.40
18085;DHT22;9169;44.492;11.372;2023-10-13T01:50:31;23.40;51.40
18085;DHT22;9169;44.492;11.372;2023-10-13T01:53:00;23.40;51.30
18085;DHT22;9169;44.492;11.372;2023-10-13T01:55:44;23.40;51.30
18085;DHT22;9169;44.492;11.372;2023-10-13T01:58:14;23.30;51.20
18085;DHT22;9169;44.492;11.372;2023-10-13T02:00:43;23.40;51.30
18085;DHT22;9169;44.492;11.372;2023-10-13T02:03:13;23.30;51.30
18085;DHT22;9169;44.492;11.372;2023-10-13T02:05:43;23.30;51.30
18085;DHT22;9169;44.492;11.372;2023-10-13T02:08:14;23.30;51.30
18085;DHT22;9169;44.492;11.372;2023-10-13T02:10:52;23.30;51.30
18085;DHT22;9169;44.492;11.372;2023-10-13T02:13:21;23.30;51.50
18085;DHT22;9169;44.492;11.372;2023-10-13T02:15:54;23.20;51.40
18085;DHT22;9169;44.492;11.372;2023-10-13T02:18:24;23.20;51.60
18085;DHT22;9169;44.492;11.372;2023-10-13T02:21:03;23.20;51.50
18085;DHT22;9169;44.492;11.372;2023-10-13T02:23:32;23.20;51.70
18085;DHT22;9169;44.492;11.372;2023-10-13T02:26:02;23.10;51.50
18085;DHT22;9169;44.492;11.372;2023-10-13T02:28:39;23.10;51.80
18085;DHT22;9169;44.492;11.372;2023-10-13T02:31:08;23.00;51.70
18085;DHT22;9169;44.492;11.372;2023-10-13T02:33:36;23.00;51.70
18085;DHT22;9169;44.492;11.372;2023-10-13T02:36:12;23.00;51.60
18085;DHT22;9169;44.492;11.372;2023-10-13T02:38:40;23.00;51.60
18085;DHT22;9169;44.492;11.372;2023-10-13T02:41:18;23.00;51.70
18085;DHT22;9169;44.492;11.372;2023-10-13T02:43:53;23.00;51.70
18085;DHT22;9169;44.492;11.372;2023-10-13T02:46:23;23.00;51.70
18085;DHT22;9169;44.492;11.372;2023-10-13T02:48:52;23.00;51.80
18085;DHT22;9169;44.492;11.372;2023-10-13T02:51:22;22.90;51.80
18085;DHT22;9169;44.492;11.372;2023-10-13T02:53:58;22.90;51.70
18085;DHT22;9169;44.492;11.372;2023-10-13T02:56:31;22.90;51.90
18085;DHT22;9169;44.492;11.372;2023-10-13T02:59:02;22.90;52.10
18085;DHT22;9169;44.492;11.372;2023-10-13T03:01:33;22.80;52.60
18085;DHT22;9169;44.492;11.372;2023-10-13T03:04:02;22.80;52.00
18085;DHT22;9169;44.492;11.372;2023-10-13T03:06:36;22.80;52.00
18085;DHT22;9169;44.492;11.372;2023-10-13T03:09:08;22.80;51.90
18085;DHT22;9169;44.492;11.372;2023-10-13T03:11:48;22.80;51.90
18085;DHT22;9169;44.492;11.372;2023-10-13T03:14:17;22.80;52.00
18085;DHT22;9169;44.492;11.372;2023-10-13T03:16:57;22.80;52.10
18085;DHT22;9169;44.492;11.372;2023-10-13T03:19:30;22.70;52.10
18085;DHT22;9169;44.492;11.372;2023-10-13T03:22:02;22.70;52.10
18085;DHT22;9169;44.492;11.372;2023-10-13T03:24:37;22.70;52.00
18085;DHT22;9169;44.492;11.372;2023-10-13T03:27:16;22.70;52.00
18085;DHT22;9169;44.492;11.372;2023-10-13T03:29:46;22.70;52.20
18085;DHT22;9169;44.492;11.372;2023-10-13T03:32:15;22.70;52.10
18085;DHT22;9169;44.492;11.372;2023-10-13T03:34:45;22.60;52.10
18085;DHT22;9169;44.492;11.372;2023-10-13T03:37:34;22.60;52.10
18085;DHT22;9169;44.492;11.372;2023-10-13T03:40:07;22.70;52.00
18085;DHT22;9169;44.492;11.372;2023-10-13T03:42:59;22.70;52.00
18085;DHT22;9169;44.492;11.372;2023-10-13T03:45:32;22.70;51.90
18085;DHT22;9169;44.492;11.372;2023-10-13T03:48:07;22.70;52.00
18085;DHT22;9169;44.492;11.372;2023-10-13T03:50:45;22.70;52.00
18085;DHT22;9169;44.492;11.372;2023-10-13T03:53:15;22.70;51.90
18085;DHT22;9169;44.492;11.372;2023-10-13T03:55:45;22.70;52.00
18085;DHT22;9169;44.492;11.372;2023-10-13T03:58:17;22.70;52.00
18085;DHT22;9169;44.492;11.372;2023-10-13T04:00:45;22.70;52.00
18085;DHT22;9169;44.492;11.372;2023-10-13T04:03:15;22.70;52.00
18085;DHT22;9169;44.492;11.372;2023-10-13T04:05:47;22.70;52.30
18085;DHT22;9169;44.492;11.372;2023-10-13T04:08:28;22.60;52.10
18085;DHT22;9169;44.492;11.372;2023-10-13T04:11:14;22.60;52.10
18085;DHT22;9169;44.492;11.372;2023-10-13T04:14:02;22.60;52.20
18085;DHT22;9169;44.492;11.372;2023-10-13T04:16:52;22.60;52.10
18085;DHT22;9169;44.492;11.372;2023-10-13T04:19:21;22.60;52.20
18085;DHT22;9169;44.492;11.372;2023-10-13T04:21:53;22.60;52.30
18085;DHT22;9169;44.492;11.372;2023-10-13T04:24:41;22.60;52.30
18085;DHT22;9169;44.492;11.372;2023-10-13T04:27:27;22.60;52.30
18085;DHT22;9169;44.492;11.372;2023-10-13T04:30:13;22.60;52.20
18085;DHT22;9169;44.492;11.372;2023-10-13T04:32:51;22.60;52.20
18085;DHT22;9169;44.492;11.372;2023-10-13T04:35:46;22.60;52.10
18085;DHT22;9169;44.492;11.372;2023-10-13T04:38:26;22.60;52.10
18085;DHT22;9169;44.492;11.372;2023-10-13T04:41:14;22.60;52.10
18085;DHT22;9169;44.492;11.372;2023-10-13T04:43:50;22.60;52.00
18085;DHT22;9169;44.492;11.372;2023-10-13T04:46:23;22.60;52.00
18085;DHT22;9169;44.492;11.372;2023-10-13T04:49:09;22.50;51.90
18085;DHT22;9169;44.492;11.372;2023-10-13T04:51:56;22.60;52.00
18085;DHT22;9169;44.492;11.372;2023-10-13T04:54:29;22.50;51.90
18085;DHT22;9169;44.492;11.372;2023-10-13T04:57:13;22.50;51.90
18085;DHT22;9169;44.492;11.372;2023-10-13T04:59:53;22.50;51.90
18085;DHT22;9169;44.492;11.372;2023-10-13T05:02:41;22.50;52.00
18085;DHT22;9169;44.492;11.372;2023-10-13T05:05:45;22.50;52.00
18085;DHT22;9169;44.492;11.372;2023-10-13T05:08:15;22.50;52.00
18085;DHT22;9169;44.492;11.372;2023-10-13T05:11:03;22.40;52.00
18085;DHT22;9169;44.492;11.372;2023-10-13T05:13:50;22.40;52.00
18085;DHT22;9169;44.492;11.372;2023-10-13T05:16:36;22.40;52.00
18085;DHT22;9169;44.492;11.372;2023-10-13T05:19:22;22.40;52.20
18085;DHT22;9169;44.492;11.372;2023-10-13T05:22:08;22.40;52.30
18085;DHT22;9169;44.492;11.372;2023-10-13T05:24:56;22.40;52.30
18085;DHT22;9169;44.492;11.372;2023-10-13T05:27:42;22.40;52.40
18085;DHT22;9169;44.492;11.372;2023-10-13T05:30:28;22.30;52.30
18085;DHT22;9169;44.492;11.372;2023-10-13T05:33:14;22.40;52.40
18085;DHT22;9169;44.492;11.372;2023-10-13T05:36:01;22.30;52.30
18085;DHT22;9169;44.492;11.372;2023-10-13T05:38:47;22.30;52.30
18085;DHT22;9169;44.492;11.372;2023-10-13T05:41:36;22.40;52.50
18085;DHT22;9169;44.492;11.372;2023-10-13T05:44:22;22.40;52.50
18085;DHT22;9169;44.492;11.372;2023-10-13T05:47:20;22.30;52.30
18085;DHT22;9169;44.492;11.372;2023-10-13T05:50:06;22.30;52.20
18085;DHT22;9169;44.492;11.372;2023-10-13T05:52:56;22.30;52.30
18085;DHT22;9169;44.492;11.372;2023-10-13T05:55:42;22.30;52.20
18085;DHT22;9169;44.492;11.372;2023-10-13T05:58:33;22.40;52.30
18085;DHT22;9169;44.492;11.372;2023-10-13T06:01:19;22.30;52.30
18085;DHT22;9169;44.492;11.372;2023-10-13T06:04:06;22.30;52.30
18085;DHT22;9169;44.492;11.372;2023-10-13T06:06:52;22.30;52.30
18085;DHT22;9169;44.492;11.372;2023-10-13T06:09:38;22.30;52.30
18085;DHT22;9169;44.492;11.372;2023-10-13T06:12:26;22.30;52.40
18085;DHT22;9169;44.492;11.372;2023-10-13T06:15:14;22.20;52.20
18085;DHT22;9169;44.492;11.372;2023-10-13T06:18:02;22.20;52.30
18085;DHT22;9169;44.492;11.372;2023-10-13T06:20:49;22.20;52.30
18085;DHT22;9169;44.492;11.372;2023-10-13T06:23:35;22.10;52.30
18085;DHT22;9169;44.492;11.372;2023-10-13T06:26:21;22.10;52.20
18085;DHT22;9169;44.492;11.372;2023-10-13T06:29:07;22.10;52.20
18085;DHT22;9169;44.492;11.372;2023-10-13T06:31:38;22.10;52.30
18085;DHT22;9169;44.492;11.372;2023-10-13T06:34:14;22.10;52.30
18085;DHT22;9169;44.492;11.372;2023-10-13T06:36:43;22.10;52.20
18085;DHT22;9169;44.492;11.372;2023-10-13T06:39:14;22.20;52.40
18085;DHT22;9169;44.492;11.372;2023-10-13T06:42:02;22.20;52.30
18085;DHT22;9169;44.492;11.372;2023-10-13T06:44:31;22.20;52.30
18085;DHT22;9169;44.492;11.372;2023-10-13T06:47:01;22.30;52.40
18085;DHT22;9169;44.492;11.372;2023-10-13T06:49:31;22.30;52.40
18085;DHT22;9169;44.492;11.372;2023-10-13T06:52:06;22.40;52.40
18085;DHT22;9169;44.492;11.372;2023-10-13T06:54:35;22.40;52.40
18085;DHT22;9169;44.492;11.372;2023-10-13T06:57:04;22.40;52.40
18085;DHT22;9169;44.492;11.372;2023-10-13T06:59:34;22.50;52.50
18085;DHT22;9169;44.492;11.372;2023-10-13T07:02:06;22.50;52.50
18085;DHT22;9169;44.492;11.372;2023-10-13T07:04:47;22.60;52.50
18085;DHT22;9169;44.492;11.372;2023-10-13T07:07:15;22.70;52.50
18085;DHT22;9169;44.492;11.372;2023-10-13T07:09:44;22.70;52.40
18085;DHT22;9169;44.492;11.372;2023-10-13T07:12:22;22.70;52.40
18085;DHT22;9169;44.492;11.372;2023-10-13T07:14:53;22.80;52.40
18085;DHT22;9169;44.492;11.372;2023-10-13T07:17:29;22.90;52.40
18085;DHT22;9169;44.492;11.372;2023-10-13T07:20:06;22.90;52.40
18085;DHT22;9169;44.492;11.372;2023-10-13T07:22:42;23.00;52.70
18085;DHT22;9169;44.492;11.372;2023-10-13T07:25:22;23.10;53.10
18085;DHT22;9169;44.492;11.372;2023-10-13T07:27:54;23.30;53.30
18085;DHT22;9169;44.492;11.372;2023-10-13T07:30:24;23.50;53.30
18085;DHT22;9169;44.492;11.372;2023-10-13T07:32:56;23.70;52.80
18085;DHT22;9169;44.492;11.372;2023-10-13T07:35:27;23.80;52.60
18085;DHT22;9169;44.492;11.372;2023-10-13T07:37:58;23.90;52.50
18085;DHT22;9169;44.492;11.372;2023-10-13T07:40:28;23.90;52.30
18085;DHT22;9169;44.492;11.372;2023-10-13T07:43:09;24.00;52.50
18085;DHT22;9169;44.492;11.372;2023-10-13T07:45:38;24.00;51.90
18085;DHT22;9169;44.492;11.372;2023-10-13T07:48:10;24.10;51.90
18085;DHT22;9169;44.492;11.372;2023-10-13T07:50:57;24.20;51.80
18085;DHT22;9169;44.492;11.372;2023-10-13T07:53:28;24.20;51.60
18085;DHT22;9169;44.492;11.372;2023-10-13T07:56:02;24.30;51.60
18085;DHT22;9169;44.492;11.372;2023-10-13T07:58:32;24.40;51.40
18085;DHT22;9169;44.492;11.372;2023-10-13T08:01:01;24.40;51.30
18085;DHT22;9169;44.492;11.372;2023-10-13T08:03:37;24.40;51.10
18085;DHT22;9169;44.492;11.372;2023-10-13T08:06:13;24.50;51.00
18085;DHT22;9169;44.492;11.372;2023-10-13T08:08:55;24.50;50.90
18085;DHT22;9169;44.492;11.372;2023-10-13T08:11:35;24.60;50.80
18085;DHT22;9169;44.492;11.372;2023-10-13T08:14:05;24.60;50.60
18085;DHT22;9169;44.492;11.372;2023-10-13T08:17:01;24.60;50.60
18085;DHT22;9169;44.492;11.372;2023-10-13T08:19:36;24.60;50.60
18085;DHT22;9169;44.492;11.372;2023-10-13T08:22:09;24.70;50.60
18085;DHT22;9169;44.492;11.372;2023-10-13T08:24:53;24.80;50.60
18085;DHT22;9169;44.492;11.372;2023-10-13T08:27:42;24.80;50.40
18085;DHT22;9169;44.492;11.372;2023-10-13T08:30:17;24.80;50.30
18085;DHT22;9169;44.492;11.372;2023-10-13T08:32:56;24.90;50.20
18085;DHT22;9169;44.492;11.372;2023-10-13T08:35:27;24.80;50.10
18085;DHT22;9169;44.492;11.372;2023-10-13T08:38:05;24.80;50.00
18085;DHT22;9169;44.492;11.372;2023-10-13T08:40:53;24.80;50.00
18085;DHT22;9169;44.492;11.372;2023-10-13T08:43:42;24.90;50.20
18085;DHT22;9169;44.492;11.372;2023-10-13T08:46:13;24.90;50.30
18085;DHT22;9169;44.492;11.372;2023-10-13T08:48:58;25.00;50.30
18085;DHT22;9169;44.492;11.372;2023-10-13T08:51:36;25.10;50.30
18085;DHT22;9169;44.492;11.372;2023-10-13T08:54:17;25.10;50.20
18085;DHT22;9169;44.492;11.372;2023-10-13T08:57:02;25.20;50.00
18085;DHT22;9169;44.492;11.372;2023-10-13T08:59:47;25.20;49.90
18085;DHT22;9169;44.492;11.372;2023-10-13T09:02:22;25.30;50.00
18085;DHT22;9169;44.492;11.372;2023-10-13T09:05:12;25.30;50.00
18085;DHT22;9169;44.492;11.372;2023-10-13T09:07:56;25.30;49.90
18085;DHT22;9169;44.492;11.372;2023-10-13T09:10:36;25.40;49.90
18085;DHT22;9169;44.492;11.372;2023-10-13T09:13:12;25.50;50.00
18085;DHT22;9169;44.492;11.372;2023-10-13T09:15:47;25.60;50.00
18085;DHT22;9169;44.492;11.372;2023-10-13T09:18:27;25.70;50.00
18085;DHT22;9169;44.492;11.372;2023-10-13T09:21:15;25.80;50.20
18085;DHT22;9169;44.492;11.372;2023-10-13T09:24:03;26.00;50.60
18085;DHT22;9169;44.492;11.372;2023-10-13T09:26:54;26.30;50.80
18085;DHT22;9169;44.492;11.372;2023-10-13T09:29:23;26.70;50.50
18085;DHT22;9169;44.492;11.372;2023-10-13T09:32:02;27.00;50.00
18085;DHT22;9169;44.492;11.372;2023-10-13T09:34:31;27.30;49.10
18085;DHT22;9169;44.492;11.372;2023-10-13T09:37:01;27.40;48.70
18085;DHT22;9169;44.492;11.372;2023-10-13T09:39:32;27.50;48.70
18085;DHT22;9169;44.492;11.372;2023-10-13T09:42:18;27.70;48.60
18085;DHT22;9169;44.492;11.372;2023-10-13T09:44:48;27.90;48.50
18085;DHT22;9169;44.492;11.372;2023-10-13T09:47:23;28.10;48.30
18085;DHT22;9169;44.492;11.372;2023-10-13T09:50:08;28.30;48.00
18085;DHT22;9169;44.492;11.372;2023-10-13T09:52:42;28.40;47.70
18085;DHT22;9169;44.492;11.372;2023-10-13T09:55:21;28.60;47.30
18085;DHT22;9169;44.492;11.372;2023-10-13T09:57:58;28.70;47.10
18085;DHT22;9169;44.492;11.372;2023-10-13T10:00:43;29.20;46.90
18085;DHT22;9169;44.492;11.372;2023-10-13T10:03:14;29.20;47.40
18085;DHT22;9169;44.492;11.372;2023-10-13T10:05:57;29.60;47.10
18085;DHT22;9169;44.492;11.372;2023-10-13T10:08:31;30.00;46.70
18085;DHT22;9169;44.492;11.372;2023-10-13T10:14:01;30.80;46.00
18085;DHT22;9169;44.492;11.372;2023-10-13T10:16:43;31.30;44.90
18085;DHT22;9169;44.492;11.372;2023-10-13T10:19:14;31.60;44.10
18085;DHT22;9169;44.492;11.372;2023-10-13T10:21:43;31.90;43.70
18085;DHT22;9169;44.492;11.372;2023-10-13T10:24:15;32.00;43.10
18085;DHT22;9169;44.492;11.372;2023-10-13T10:26:53;32.00;42.60
18085;DHT22;9169;44.492;11.372;2023-10-13T10:29:21;31.90;42.40
18085;DHT22;9169;44.492;11.372;2023-10-13T10:31:50;31.80;42.20
18085;DHT22;9169;44.492;11.372;2023-10-13T10:34:19;31.50;42.00
18085;DHT22;9169;44.492;11.372;2023-10-13T10:36:54;31.30;42.20
18085;DHT22;9169;44.492;11.372;2023-10-13T10:39:33;31.00;42.30
18085;DHT22;9169;44.492;11.372;2023-10-13T10:42:14;30.80;42.60
18085;DHT22;9169;44.492;11.372;2023-10-13T10:44:44;30.70;42.80
18085;DHT22;9169;44.492;11.372;2023-10-13T10:47:16;30.50;42.80
18085;DHT22;9169;44.492;11.372;2023-10-13T10:50:00;30.40;43.20
18085;DHT22;9169;44.492;11.372;2023-10-13T10:52:35;30.20;43.30
18085;DHT22;9169;44.492;11.372;2023-10-13T10:55:07;30.20;43.40
18085;DHT22;9169;44.492;11.372;2023-10-13T10:57:39;30.10;43.60
18085;DHT22;9169;44.492;11.372;2023-10-13T11:00:18;30.00;43.80
18085;DHT22;9169;44.492;11.372;2023-10-13T11:02:54;29.90;43.70
18085;DHT22;9169;44.492;11.372;2023-10-13T11:05:23;29.90;43.80
18085;DHT22;9169;44.492;11.372;2023-10-13T11:07:59;29.90;43.90
18085;DHT22;9169;44.492;11.372;2023-10-13T11:10:29;29.80;44.10
18085;DHT22;9169;44.492;11.372;2023-10-13T11:13:00;29.80;44.20
18085;DHT22;9169;44.492;11.372;2023-10-13T11:15:42;29.80;44.20
18085;DHT22;9169;44.492;11.372;2023-10-13T11:18:12;29.80;44.20
18085;DHT22;9169;44.492;11.372;2023-10-13T11:20:49;29.70;43.90
18085;DHT22;9169;44.492;11.372;2023-10-13T11:23:24;29.70;44.20
18085;DHT22;9169;44.492;11.372;2023-10-13T11:25:57;29.70;44.40
18085;DHT22;9169;44.492;11.372;2023-10-13T11:28:28;29.70;44.30
18085;DHT22;9169;44.492;11.372;2023-10-13T11:30:57;29.70;44.30
18085;DHT22;9169;44.492;11.372;2023-10-13T11:33:27;29.70;44.30
18085;DHT22;9169;44.492;11.372;2023-10-13T11:35:57;29.80;44.30
18085;DHT22;9169;44.492;11.372;2023-10-13T11:38:31;29.80;44.20
18085;DHT22;9169;44.492;11.372;2023-10-13T11:41:10;29.80;44.00
18085;DHT22;9169;44.492;11.372;2023-10-13T11:43:49;29.80;44.10
18085;DHT22;9169;44.492;11.372;2023-10-13T11:46:33;29.80;44.00
18085;DHT22;9169;44.492;11.372;2023-10-13T11:49:19;29.80;43.90
18085;DHT22;9169;44.492;11.372;2023-10-13T11:51:59;29.80;43.60
18085;DHT22;9169;44.492;11.372;2023-10-13T11:54:43;29.80;43.70
18085;DHT22;9169;44.492;11.372;2023-10-13T11:57:14;29.80;43.90
18085;DHT22;9169;44.492;11.372;2023-10-13T11:59:47;29.80;43.90
18085;DHT22;9169;44.492;11.372;2023-10-13T12:02:23;29.70;43.70
18085;DHT22;9169;44.492;11.372;2023-10-13T12:05:09;29.80;43.60
18085;DHT22;9169;44.492;11.372;2023-10-13T12:07:44;29.80;43.80
18085;DHT22;9169;44.492;11.372;2023-10-13T12:10:16;29.80;43.50
18085;DHT22;9169;44.492;11.372;2023-10-13T12:13:01;29.80;43.70
18085;DHT22;9169;44.492;11.372;2023-10-13T12:15:37;29.80;43.60
18085;DHT22;9169;44.492;11.372;2023-10-13T12:18:16;29.80;43.20
18085;DHT22;9169;44.492;11.372;2023-10-13T12:20:47;29.80;43.30
18085;DHT22;9169;44.492;11.372;2023-10-13T12:23:17;29.80;43.00
18085;DHT22;9169;44.492;11.372;2023-10-13T12:25:47;29.80;43.20
18085;DHT22;9169;44.492;11.372;2023-10-13T12:28:33;29.70;43.10
18085;DHT22;9169;44.492;11.372;2023-10-13T12:31:09;29.70;43.10
18085;DHT22;9169;44.492;11.372;2023-10-13T12:33:39;29.80;43.00
18085;DHT22;9169;44.492;11.372;2023-10-13T12:36:09;29.80;43.00
18085;DHT22;9169;44.492;11.372;2023-10-13T12:38:42;29.90;43.10
18085;DHT22;9169;44.492;11.372;2023-10-13T12:41:34;29.90;43.20
18085;DHT22;9169;44.492;11.372;2023-10-13T12:44:21;30.20;44.10
18085;DHT22;9169;44.492;11.372;2023-10-13T12:47:08;30.80;44.60
18085;DHT22;9169;44.492;11.372;2023-10-13T12:49:56;31.50;43.80
18085;DHT22;9169;44.492;11.372;2023-10-13T12:52:35;32.10;43.10
18085;DHT22;9169;44.492;11.372;2023-10-13T12:55:04;32.70;42.90
18085;DHT22;9169;44.492;11.372;2023-10-13T12:57:37;33.30;42.70
18085;DHT22;9169;44.492;11.372;2023-10-13T13:00:12;33.90;42.40
18085;DHT22;9169;44.492;11.372;2023-10-13T13:02:53;34.60;42.40
18085;DHT22;9169;44.492;11.372;2023-10-13T13:05:24;35.10;40.70
18085;DHT22;9169;44.492;11.372;2023-10-13T13:07:57;35.60;39.80
18085;DHT22;9169;44.492;11.372;2023-10-13T13:10:25;36.00;39.60
18085;DHT22;9169;44.492;11.372;2023-10-13T13:13:06;36.30;39.40
18085;DHT22;9169;44.492;11.372;2023-10-13T13:15:34;36.70;39.40
18085;DHT22;9169;44.492;11.372;2023-10-13T13:18:05;37.20;38.90
18085;DHT22;9169;44.492;11.372;2023-10-13T13:20:39;37.60;38.20
18085;DHT22;9169;44.492;11.372;2023-10-13T13:23:20;37.90;37.80
18085;DHT22;9169;44.492;11.372;2023-10-13T13:25:53;38.20;37.10
18085;DHT22;9169;44.492;11.372;2023-10-13T13:28:24;38.40;36.90
18085;DHT22;9169;44.492;11.372;2023-10-13T13:30:56;38.60;36.30
18085;DHT22;9169;44.492;11.372;2023-10-13T13:33:26;38.80;35.80
18085;DHT22;9169;44.492;11.372;2023-10-13T13:36:00;38.90;35.40
18085;DHT22;9169;44.492;11.372;2023-10-13T13:38:31;39.00;35.50
18085;DHT22;9169;44.492;11.372;2023-10-13T13:41:00;39.10;35.30
18085;DHT22;9169;44.492;11.372;2023-10-13T13:43:31;39.20;34.80
18085;DHT22;9169;44.492;11.372;2023-10-13T13:46:05;39.10;34.00
18085;DHT22;9169;44.492;11.372;2023-10-13T13:48:38;38.80;33.90
18085;DHT22;9169;44.492;11.372;2023-10-13T13:51:08;38.40;33.50
18085;DHT22;9169;44.492;11.372;2023-10-13T13:53:42;38.00;33.80
18085;DHT22;9169;44.492;11.372;2023-10-13T13:56:13;37.50;34.00
18085;DHT22;9169;44.492;11.372;2023-10-13T13:58:43;37.10;34.00
18085;DHT22;9169;44.492;11.372;2023-10-13T14:01:14;36.70;34.20
18085;DHT22;9169;44.492;11.372;2023-10-13T14:03:48;36.30;34.40
18085;DHT22;9169;44.492;11.372;2023-10-13T14:06:18;36.00;34.60
18085;DHT22;9169;44.492;11.372;2023-10-13T14:08:51;35.50;34.70
18085;DHT22;9169;44.492;11.372;2023-10-13T14:11:23;35.20;35.10
18085;DHT22;9169;44.492;11.372;2023-10-13T14:14:06;34.90;35.20
18085;DHT22;9169;44.492;11.372;2023-10-13T14:16:40;34.50;35.40
18085;DHT22;9169;44.492;11.372;2023-10-13T14:19:14;34.30;35.80
18085;DHT22;9169;44.492;11.372;2023-10-13T14:21:47;34.00;35.90
18085;DHT22;9169;44.492;11.372;2023-10-13T14:24:20;33.80;36.30
18085;DHT22;9169;44.492;11.372;2023-10-13T14:26:54;33.60;36.40
18085;DHT22;9169;44.492;11.372;2023-10-13T14:29:23;33.30;36.60
18085;DHT22;9169;44.492;11.372;2023-10-13T14:31:54;33.10;36.70
18085;DHT22;9169;44.492;11.372;2023-10-13T14:34:24;33.00;37.00
18085;DHT22;9169;44.492;11.372;2023-10-13T14:36:53;32.80;37.20
18085;DHT22;9169;44.492;11.372;2023-10-13T14:39:23;32.60;37.30
18085;DHT22;9169;44.492;11.372;2023-10-13T14:41:59;32.40;37.50
18085;DHT22;9169;44.492;11.372;2023-10-13T14:44:28;32.30;37.50
18085;DHT22;9169;44.492;11.372;2023-10-13T14:46:57;32.00;37.50
18085;DHT22;9169;44.492;11.372;2023-10-13T14:49:27;31.90;37.80
18085;DHT22;9169;44.492;11.372;2023-10-13T14:51:56;31.70;37.90
18085;DHT22;9169;44.492;11.372;2023-10-13T14:54:26;31.60;38.20
18085;DHT22;9169;44.492;11.372;2023-10-13T14:57:01;31.50;38.40
18085;DHT22;9169;44.492;11.372;2023-10-13T14:59:31;31.40;38.60
18085;DHT22;9169;44.492;11.372;2023-10-13T15:02:06;31.30;38.70
18085;DHT22;9169;44.492;11.372;2023-10-13T15:04:36;31.20;38.80
18085;DHT22;9169;44.492;11.372;2023-10-13T15:07:08;31.10;38.80
18085;DHT22;9169;44.492;11.372;2023-10-13T15:09:38;31.00;38.90
18085;DHT22;9169;44.492;11.372;2023-10-13T15:12:10;30.90;39.00
18085;DHT22;9169;44.492;11.372;2023-10-13T15:14:43;30.80;39.30
18085;DHT22;9169;44.492;11.372;2023-10-13T15:17:13;30.70;39.30
18085;DHT22;9169;44.492;11.372;2023-10-13T15:19:45;30.60;39.50
18085;DHT22;9169;44.492;11.372;2023-10-13T15:22:13;30.50;39.70
18085;DHT22;9169;44.492;11.372;2023-10-13T15:24:51;30.40;39.80
18085;DHT22;9169;44.492;11.372;2023-10-13T15:27:40;30.30;39.70
18085;DHT22;9169;44.492;11.372;2023-10-13T15:30:11;30.20;39.90
18085;DHT22;9169;44.492;11.372;2023-10-13T15:32:52;30.20;40.00
18085;DHT22;9169;44.492;11.372;2023-10-13T15:35:22;30.10;40.10
18085;DHT22;9169;44.492;11.372;2023-10-13T15:37:56;30.00;40.20
18085;DHT22;9169;44.492;11.372;2023-10-13T15:40:24;29.90;40.20
18085;DHT22;9169;44.492;11.372;2023-10-13T15:42:55;29.90;40.30
18085;DHT22;9169;44.492;11.372;2023-10-13T15:45:27;29.80;40.50
18085;DHT22;9169;44.492;11.372;2023-10-13T15:48:08;29.80;40.70
18085;DHT22;9169;44.492;11.372;2023-10-13T15:50:43;29.70;40.70
18085;DHT22;9169;44.492;11.372;2023-10-13T15:53:12;29.60;40.70
18085;DHT22;9169;44.492;11.372;2023-10-13T15:55:41;29.60;40.80
18085;DHT22;9169;44.492;11.372;2023-10-13T15:58:13;29.50;40.80
18085;DHT22;9169;44.492;11.372;2023-10-13T16:00:43;29.40;40.90
18085;DHT22;9169;44.492;11.372;2023-10-13T16:03:13;29.40;41.00
18085;DHT22;9169;44.492;11.372;2023-10-13T16:05:43;29.30;41.00
18085;DHT22;9169;44.492;11.372;2023-10-13T16:08:13;29.30;41.20
18085;DHT22;9169;44.492;11.372;2023-10-13T16:10:41;29.20;41.20
18085;DHT22;9169;44.492;11.372;2023-10-13T16:13:11;29.10;41.30
18085;DHT22;9169;44.492;11.372;2023-10-13T16:15:44;29.10;41.40
18085;DHT22;9169;44.492;11.372;2023-10-13T16:18:14;29.00;41.50
18085;DHT22;9169;44.492;11.372;2023-10-13T16:20:50;28.90;41.50
18085;DHT22;9169;44.492;11.372;2023-10-13T16:23:19;28.90;41.60
18085;DHT22;9169;44.492;11.372;2023-10-13T16:25:48;28.80;41.70